sensor_id;sensor_type;location;lat;lon;timestamp;temperature;humidity
20957;DHT22;10637;47.970;7.830;2023-03-20T00:01:01;9.30;99.90
20957;DHT22;10637;47.970;7.830;2023-03-20T00:06:02;9.10;99.90
20957;DHT22;10637;47.970;7.830;2023-03-20T00:11:04;9.10;99.90
20957;DHT22;10637;47.970;7.830;2023-03-20T00:16:06;9.30;99.90
20957;DHT22;10637;47.970;7.830;2023-03-20T00:21:16;9.30;99.90
20957;DHT22;10637;47.970;7.830;2023-03-20T00:26:18;9.10;99.90
20957;DHT22;10637;47.970;7.830;2023-03-20T00:36:26;9.20;99.90
20957;DHT22;10637;47.970;7.830;2023-03-20T00:46:36;9.00;99.90
20957;DHT22;10637;47.970;7.830;2023-03-20T00:51:39;9.00;99.90
20957;DHT22;10637;47.970;7.830;2023-03-20T00:57:00;9.10;99.90
20957;DHT22;10637;47.970;7.830;2023-03-20T01:02:03;9.10;99.90
20957;DHT22;10637;47.970;7.830;2023-03-20T01:07:06;9.20;99.90
20957;DHT22;10637;47.970;7.830;2023-03-20T01:12:10;9.30;99.90
20957;DHT22;10637;47.970;7.830;2023-03-20T01:17:18;9.30;99.90
20957;DHT22;10637;47.970;7.830;2023-03-20T01:22:19;9.30;99.90
20957;DHT22;10637;47.970;7.830;2023-03-20T01:27:21;9.50;99.90
20957;DHT22;10637;47.970;7.830;2023-03-20T01:32:24;9.40;99.90
20957;DHT22;10637;47.970;7.830;2023-03-20T01:37:26;9.50;99.90
20957;DHT22;10637;47.970;7.830;2023-03-20T01:42:28;9.60;99.90
20957;DHT22;10637;47.970;7.830;2023-03-20T01:47:30;9.60;99.90
20957;DHT22;10637;47.970;7.830;2023-03-20T01:52:33;9.50;99.90
20957;DHT22;10637;47.970;7.830;2023-03-20T01:57:35;9.50;99.90
20957;DHT22;10637;47.970;7.830;2023-03-20T02:02:38;9.50;99.90
20957;DHT22;10637;47.970;7.830;2023-03-20T02:07:46;9.50;99.90
20957;DHT22;10637;47.970;7.830;2023-03-20T02:12:50;9.60;99.90
20957;DHT22;10637;47.970;7.830;2023-03-20T02:17:52;9.60;99.90
20957;DHT22;10637;47.970;7.830;2023-03-20T02:33:52;9.60;99.90
20957;DHT22;10637;47.970;7.830;2023-03-20T02:44:57;9.80;99.90
20957;DHT22;10637;47.970;7.830;2023-03-20T02:50:36;9.80;99.90
20957;DHT22;10637;47.970;7.830;2023-03-20T03:01:27;9.90;99.90
20957;DHT22;10637;47.970;7.830;2023-03-20T03:06:34;9.80;99.90
20957;DHT22;10637;47.970;7.830;2023-03-20T03:11:40;9.70;99.90
20957;DHT22;10637;47.970;7.830;2023-03-20T03:16:44;9.80;99.90
20957;DHT22;10637;47.970;7.830;2023-03-20T03:21:47;9.80;99.90
20957;DHT22;10637;47.970;7.830;2023-03-20T03:26:49;9.90;99.90
20957;DHT22;10637;47.970;7.830;2023-03-20T03:31:52;9.80;99.90
20957;DHT22;10637;47.970;7.830;2023-03-20T03:47:33;9.80;99.90
20957;DHT22;10637;47.970;7.830;2023-03-20T03:52:37;9.70;99.90
20957;DHT22;10637;47.970;7.830;2023-03-20T03:57:45;9.80;99.90
20957;DHT22;10637;47.970;7.830;2023-03-20T04:02:51;9.80;99.90
20957;DHT22;10637;47.970;7.830;2023-03-20T04:07:57;9.80;99.90
20957;DHT22;10637;47.970;7.830;2023-03-20T04:12:59;9.80;99.90
20957;DHT22;10637;47.970;7.830;2023-03-20T04:18:00;9.80;99.90
20957;DHT22;10637;47.970;7.830;2023-03-20T04:23:02;9.70;99.90
20957;DHT22;10637;47.970;7.830;2023-03-20T04:28:06;9.60;99.90
20957;DHT22;10637;47.970;7.830;2023-03-20T04:33:08;9.50;99.90
20957;DHT22;10637;47.970;7.830;2023-03-20T04:38:09;9.60;99.90
20957;DHT22;10637;47.970;7.830;2023-03-20T04:43:13;9.50;99.90
20957;DHT22;10637;47.970;7.830;2023-03-20T04:48:15;9.50;99.90
20957;DHT22;10637;47.970;7.830;2023-03-20T04:53:17;9.40;99.90
20957;DHT22;10637;47.970;7.830;2023-03-20T04:58:19;9.50;99.90
20957;DHT22;10637;47.970;7.830;2023-03-20T05:03:21;9.60;99.90
20957;DHT22;10637;47.970;7.830;2023-03-20T05:08:24;9.50;99.90
20957;DHT22;10637;47.970;7.830;2023-03-20T05:13:26;9.60;99.90
20957;DHT22;10637;47.970;7.830;2023-03-20T05:18:28;9.60;99.90
20957;DHT22;10637;47.970;7.830;2023-03-20T05:23:30;9.60;99.90
20957;DHT22;10637;47.970;7.830;2023-03-20T05:28:31;9.70;99.90
20957;DHT22;10637;47.970;7.830;2023-03-20T05:33:33;9.80;99.90
20957;DHT22;10637;47.970;7.830;2023-03-20T05:38:38;9.80;99.90
20957;DHT22;10637;47.970;7.830;2023-03-20T05:43:40;9.80;99.90
20957;DHT22;10637;47.970;7.830;2023-03-20T05:48:42;9.80;99.90
20957;DHT22;10637;47.970;7.830;2023-03-20T05:53:43;9.80;99.90
20957;DHT22;10637;47.970;7.830;2023-03-20T05:58:45;9.80;99.90
20957;DHT22;10637;47.970;7.830;2023-03-20T06:03:47;9.80;99.90
20957;DHT22;10637;47.970;7.830;2023-03-20T06:08:49;9.80;99.90
20957;DHT22;10637;47.970;7.830;2023-03-20T06:13:51;9.70;99.90
20957;DHT22;10637;47.970;7.830;2023-03-20T06:18:56;9.80;99.90
20957;DHT22;10637;47.970;7.830;2023-03-20T06:23:58;9.80;99.90
20957;DHT22;10637;47.970;7.830;2023-03-20T06:29:00;9.70;99.90
20957;DHT22;10637;47.970;7.830;2023-03-20T06:34:02;9.70;99.90
20957;DHT22;10637;47.970;7.830;2023-03-20T06:39:05;9.70;99.90
20957;DHT22;10637;47.970;7.830;2023-03-20T06:44:07;9.80;99.90
20957;DHT22;10637;47.970;7.830;2023-03-20T06:49:08;9.90;99.90
20957;DHT22;10637;47.970;7.830;2023-03-20T06:54:10;10.00;99.90
20957;DHT22;10637;47.970;7.830;2023-03-20T06:59:12;10.10;99.90
20957;DHT22;10637;47.970;7.830;2023-03-20T07:04:14;10.30;99.90
20957;DHT22;10637;47.970;7.830;2023-03-20T07:09:16;10.40;99.90
20957;DHT22;10637;47.970;7.830;2023-03-20T07:14:18;10.60;99.90
20957;DHT22;10637;47.970;7.830;2023-03-20T07:19:20;10.80;99.90
20957;DHT22;10637;47.970;7.830;2023-03-20T07:24:22;10.80;99.90
20957;DHT22;10637;47.970;7.830;2023-03-20T07:29:24;10.80;99.90
20957;DHT22;10637;47.970;7.830;2023-03-20T07:34:26;10.90;99.90
20957;DHT22;10637;47.970;7.830;2023-03-20T07:39:28;11.00;99.90
20957;DHT22;10637;47.970;7.830;2023-03-20T07:44:29;10.90;99.90
20957;DHT22;10637;47.970;7.830;2023-03-20T07:49:32;10.90;99.90
20957;DHT22;10637;47.970;7.830;2023-03-20T07:54:34;10.90;99.90
20957;DHT22;10637;47.970;7.830;2023-03-20T07:59:35;11.00;99.90
20957;DHT22;10637;47.970;7.830;2023-03-20T08:04:37;10.90;99.90
20957;DHT22;10637;47.970;7.830;2023-03-20T08:09:39;10.90;99.90
20957;DHT22;10637;47.970;7.830;2023-03-20T08:14:41;11.00;99.90
20957;DHT22;10637;47.970;7.830;2023-03-20T08:19:44;10.80;99.90
20957;DHT22;10637;47.970;7.830;2023-03-20T08:24:46;10.80;99.90
20957;DHT22;10637;47.970;7.830;2023-03-20T08:29:48;10.70;99.90
20957;DHT22;10637;47.970;7.830;2023-03-20T08:34:49;10.80;99.90
20957;DHT22;10637;47.970;7.830;2023-03-20T08:39:51;10.80;99.90
20957;DHT22;10637;47.970;7.830;2023-03-20T08:44:53;10.90;99.90
20957;DHT22;10637;47.970;7.830;2023-03-20T08:49:55;10.90;99.90
20957;DHT22;10637;47.970;7.830;2023-03-20T08:54:57;11.10;99.90
20957;DHT22;10637;47.970;7.830;2023-03-20T08:59:59;11.40;99.90
20957;DHT22;10637;47.970;7.830;2023-03-20T09:05:02;11.80;99.90
20957;DHT22;10637;47.970;7.830;2023-03-20T09:10:04;12.60;99.90
20957;DHT22;10637;47.970;7.830;2023-03-20T09:15:07;12.90;99.90
20957;DHT22;10637;47.970;7.830;2023-03-20T09:20:09;13.30;99.90
20957;DHT22;10637;47.970;7.830;2023-03-20T09:25:11;12.80;99.90
20957;DHT22;10637;47.970;7.830;2023-03-20T09:30:13;13.30;99.90
20957;DHT22;10637;47.970;7.830;2023-03-20T09:35:16;13.80;99.90
20957;DHT22;10637;47.970;7.830;2023-03-20T09:40:30;14.30;99.90
20957;DHT22;10637;47.970;7.830;2023-03-20T09:51:23;15.90;99.90
20957;DHT22;10637;47.970;7.830;2023-03-20T09:56:29;15.10;99.90
20957;DHT22;10637;47.970;7.830;2023-03-20T10:01:46;15.00;99.90
20957;DHT22;10637;47.970;7.830;2023-03-20T10:06:49;14.80;99.90
20957;DHT22;10637;47.970;7.830;2023-03-20T10:22:50;18.40;99.30
20957;DHT22;10637;47.970;7.830;2023-03-20T10:28:02;17.80;95.20
20957;DHT22;10637;47.970;7.830;2023-03-20T10:44:02;15.00;99.90
20957;DHT22;10637;47.970;7.830;2023-03-20T10:49:15;14.80;99.90
20957;DHT22;10637;47.970;7.830;2023-03-20T10:54:34;14.40;99.90
20957;DHT22;10637;47.970;7.830;2023-03-20T10:59:40;14.80;99.90
20957;DHT22;10637;47.970;7.830;2023-03-20T11:04:43;16.30;97.30
20957;DHT22;10637;47.970;7.830;2023-03-20T11:09:45;17.20;95.30
20957;DHT22;10637;47.970;7.830;2023-03-20T11:14:46;16.10;96.60
20957;DHT22;10637;47.970;7.830;2023-03-20T11:19:50;15.50;95.90
20957;DHT22;10637;47.970;7.830;2023-03-20T11:24:54;15.40;96.60
20957;DHT22;10637;47.970;7.830;2023-03-20T11:30:02;15.20;97.40
20957;DHT22;10637;47.970;7.830;2023-03-20T11:40:32;14.70;95.80
20957;DHT22;10637;47.970;7.830;2023-03-20T11:45:36;14.80;97.30
20957;DHT22;10637;47.970;7.830;2023-03-20T11:50:47;14.80;98.50
20957;DHT22;10637;47.970;7.830;2023-03-20T11:56:06;14.90;98.20
20957;DHT22;10637;47.970;7.830;2023-03-20T12:01:11;14.90;98.40
20957;DHT22;10637;47.970;7.830;2023-03-20T12:06:16;14.50;98.80
20957;DHT22;10637;47.970;7.830;2023-03-20T12:11:39;14.60;98.40
20957;DHT22;10637;47.970;7.830;2023-03-20T12:16:41;14.80;97.90
20957;DHT22;10637;47.970;7.830;2023-03-20T12:22:13;15.40;96.50
20957;DHT22;10637;47.970;7.830;2023-03-20T12:27:31;15.50;97.00
20957;DHT22;10637;47.970;7.830;2023-03-20T12:32:37;15.80;95.90
20957;DHT22;10637;47.970;7.830;2023-03-20T12:37:40;15.20;95.80
20957;DHT22;10637;47.970;7.830;2023-03-20T12:42:58;15.70;95.10
20957;DHT22;10637;47.970;7.830;2023-03-20T12:48:08;16.00;95.00
20957;DHT22;10637;47.970;7.830;2023-03-20T12:59:10;15.80;92.70
20957;DHT22;10637;47.970;7.830;2023-03-20T13:20:50;15.70;91.60
20957;DHT22;10637;47.970;7.830;2023-03-20T13:25:51;15.50;92.00
20957;DHT22;10637;47.970;7.830;2023-03-20T13:36:48;15.80;92.10
20957;DHT22;10637;47.970;7.830;2023-03-20T13:41:53;15.90;92.10
20957;DHT22;10637;47.970;7.830;2023-03-20T13:47:04;16.10;91.30
20957;DHT22;10637;47.970;7.830;2023-03-20T14:07:48;14.90;92.90
20957;DHT22;10637;47.970;7.830;2023-03-20T14:12:53;15.10;93.60
20957;DHT22;10637;47.970;7.830;2023-03-20T14:17:55;15.50;92.60
20957;DHT22;10637;47.970;7.830;2023-03-20T14:22:58;15.50;92.40
20957;DHT22;10637;47.970;7.830;2023-03-20T14:38:30;15.30;92.10
20957;DHT22;10637;47.970;7.830;2023-03-20T14:49:01;15.40;91.80
20957;DHT22;10637;47.970;7.830;2023-03-20T14:59:23;15.50;91.50
20957;DHT22;10637;47.970;7.830;2023-03-20T15:04:27;15.40;91.10
20957;DHT22;10637;47.970;7.830;2023-03-20T15:09:32;15.60;91.00
20957;DHT22;10637;47.970;7.830;2023-03-20T15:14:57;16.20;90.40
20957;DHT22;10637;47.970;7.830;2023-03-20T15:25:21;16.80;86.90
20957;DHT22;10637;47.970;7.830;2023-03-20T15:30:23;16.70;88.40
20957;DHT22;10637;47.970;7.830;2023-03-20T15:35:26;16.10;90.00
20957;DHT22;10637;47.970;7.830;2023-03-20T15:40:30;16.50;88.70
20957;DHT22;10637;47.970;7.830;2023-03-20T15:45:51;16.80;89.10
20957;DHT22;10637;47.970;7.830;2023-03-20T15:51:09;16.20;87.70
20957;DHT22;10637;47.970;7.830;2023-03-20T15:56:13;16.40;87.80
20957;DHT22;10637;47.970;7.830;2023-03-20T16:01:21;16.20;87.50
20957;DHT22;10637;47.970;7.830;2023-03-20T16:06:23;16.10;89.00
20957;DHT22;10637;47.970;7.830;2023-03-20T16:11:35;16.40;88.50
20957;DHT22;10637;47.970;7.830;2023-03-20T16:16:38;16.20;87.50
20957;DHT22;10637;47.970;7.830;2023-03-20T16:21:44;16.00;88.40
20957;DHT22;10637;47.970;7.830;2023-03-20T16:26:50;15.80;88.90
20957;DHT22;10637;47.970;7.830;2023-03-20T16:32:21;15.90;90.00
20957;DHT22;10637;47.970;7.830;2023-03-20T16:37:30;15.90;89.10
20957;DHT22;10637;47.970;7.830;2023-03-20T16:42:32;15.70;89.90
20957;DHT22;10637;47.970;7.830;2023-03-20T16:47:35;15.20;91.00
20957;DHT22;10637;47.970;7.830;2023-03-20T16:52:48;14.80;91.50
20957;DHT22;10637;47.970;7.830;2023-03-20T16:57:52;14.70;91.90
20957;DHT22;10637;47.970;7.830;2023-03-20T17:03:19;14.50;92.40
20957;DHT22;10637;47.970;7.830;2023-03-20T17:13:28;14.20;93.60
20957;DHT22;10637;47.970;7.830;2023-03-20T17:18:30;14.00;93.50
20957;DHT22;10637;47.970;7.830;2023-03-20T17:23:32;14.00;94.70
20957;DHT22;10637;47.970;7.830;2023-03-20T17:28:35;13.80;95.90
20957;DHT22;10637;47.970;7.830;2023-03-20T17:33:37;13.50;97.10
20957;DHT22;10637;47.970;7.830;2023-03-20T17:38:39;13.20;98.50
20957;DHT22;10637;47.970;7.830;2023-03-20T17:43:42;12.80;99.70
20957;DHT22;10637;47.970;7.830;2023-03-20T17:48:44;12.50;99.90
20957;DHT22;10637;47.970;7.830;2023-03-20T17:53:46;12.40;99.90
20957;DHT22;10637;47.970;7.830;2023-03-20T17:58:48;12.30;99.90
20957;DHT22;10637;47.970;7.830;2023-03-20T18:03:51;11.80;99.90
20957;DHT22;10637;47.970;7.830;2023-03-20T18:08:54;11.80;99.90
20957;DHT22;10637;47.970;7.830;2023-03-20T18:13:56;11.70;99.90
20957;DHT22;10637;47.970;7.830;2023-03-20T18:18:58;11.70;99.90
20957;DHT22;10637;47.970;7.830;2023-03-20T18:24:01;11.60;99.90
20957;DHT22;10637;47.970;7.830;2023-03-20T18:29:03;11.60;99.90
20957;DHT22;10637;47.970;7.830;2023-03-20T18:34:05;11.30;99.90
20957;DHT22;10637;47.970;7.830;2023-03-20T18:39:07;11.30;99.90
20957;DHT22;10637;47.970;7.830;2023-03-20T18:44:09;11.20;99.90
20957;DHT22;10637;47.970;7.830;2023-03-20T18:49:15;11.10;99.90
20957;DHT22;10637;47.970;7.830;2023-03-20T18:54:17;11.20;99.90
20957;DHT22;10637;47.970;7.830;2023-03-20T18:59:19;10.90;99.90
20957;DHT22;10637;47.970;7.830;2023-03-20T19:04:21;10.60;99.90
20957;DHT22;10637;47.970;7.830;2023-03-20T19:09:24;10.40;99.90
20957;DHT22;10637;47.970;7.830;2023-03-20T19:14:27;9.90;99.90
20957;DHT22;10637;47.970;7.830;2023-03-20T19:19:28;9.60;99.90
20957;DHT22;10637;47.970;7.830;2023-03-20T19:24:30;9.80;99.90
20957;DHT22;10637;47.970;7.830;2023-03-20T19:29:32;9.70;99.90
20957;DHT22;10637;47.970;7.830;2023-03-20T19:34:34;9.70;99.90
20957;DHT22;10637;47.970;7.830;2023-03-20T19:39:56;9.70;99.90
20957;DHT22;10637;47.970;7.830;2023-03-20T19:44:58;9.70;99.90
20957;DHT22;10637;47.970;7.830;2023-03-20T19:49:59;9.60;99.90
20957;DHT22;10637;47.970;7.830;2023-03-20T19:55:02;9.50;99.90
20957;DHT22;10637;47.970;7.830;2023-03-20T20:00:04;9.50;99.90
20957;DHT22;10637;47.970;7.830;2023-03-20T20:05:35;9.60;99.90
20957;DHT22;10637;47.970;7.830;2023-03-20T20:10:40;9.60;99.90
20957;DHT22;10637;47.970;7.830;2023-03-20T20:15:44;9.70;99.90
20957;DHT22;10637;47.970;7.830;2023-03-20T20:20:46;9.60;99.90
20957;DHT22;10637;47.970;7.830;2023-03-20T20:26:10;9.40;99.90
20957;DHT22;10637;47.970;7.830;2023-03-20T20:31:12;9.10;99.90
20957;DHT22;10637;47.970;7.830;2023-03-20T20:36:14;9.00;99.90
20957;DHT22;10637;47.970;7.830;2023-03-20T20:41:36;9.10;99.90
20957;DHT22;10637;47.970;7.830;2023-03-20T20:46:38;9.30;99.90
20957;DHT22;10637;47.970;7.830;2023-03-20T20:51:40;9.30;99.90
20957;DHT22;10637;47.970;7.830;2023-03-20T20:56:42;9.30;99.90
20957;DHT22;10637;47.970;7.830;2023-03-20T21:01:44;9.30;99.90
20957;DHT22;10637;47.970;7.830;2023-03-20T21:06:46;9.20;99.90
20957;DHT22;10637;47.970;7.830;2023-03-20T21:12:11;8.80;99.90
20957;DHT22;10637;47.970;7.830;2023-03-20T21:17:33;8.80;99.90
20957;DHT22;10637;47.970;7.830;2023-03-20T21:22:35;8.70;99.90
20957;DHT22;10637;47.970;7.830;2023-03-20T21:27:37;8.70;99.90
20957;DHT22;10637;47.970;7.830;2023-03-20T21:32:39;8.40;99.90
20957;DHT22;10637;47.970;7.830;2023-03-20T21:37:41;8.40;99.90
20957;DHT22;10637;47.970;7.830;2023-03-20T21:43:04;8.40;99.90
20957;DHT22;10637;47.970;7.830;2023-03-20T21:48:06;8.50;99.90
20957;DHT22;10637;47.970;7.830;2023-03-20T21:53:28;8.60;99.90
20957;DHT22;10637;47.970;7.830;2023-03-20T21:58:50;8.70;99.90
20957;DHT22;10637;47.970;7.830;2023-03-20T22:04:12;8.90;99.90
20957;DHT22;10637;47.970;7.830;2023-03-20T22:09:33;9.10;99.90
20957;DHT22;10637;47.970;7.830;2023-03-20T22:14:56;9.20;99.90
20957;DHT22;10637;47.970;7.830;2023-03-20T22:20:18;9.00;99.90
20957;DHT22;10637;47.970;7.830;2023-03-20T22:25:55;9.00;99.90
20957;DHT22;10637;47.970;7.830;2023-03-20T22:31:17;9.10;99.90
20957;DHT22;10637;47.970;7.830;2023-03-20T22:36:39;9.20;99.90
20957;DHT22;10637;47.970;7.830;2023-03-20T22:42:01;9.20;99.90
20957;DHT22;10637;47.970;7.830;2023-03-20T22:47:22;9.10;99.90
20957;DHT22;10637;47.970;7.830;2023-03-20T22:52:24;9.00;99.90
20957;DHT22;10637;47.970;7.830;2023-03-20T22:57:38;8.90;99.90
20957;DHT22;10637;47.970;7.830;2023-03-20T23:02:56;8.90;99.90
20957;DHT22;10637;47.970;7.830;2023-03-20T23:08:16;8.70;99.90
20957;DHT22;10637;47.970;7.830;2023-03-20T23:13:18;8.60;99.90
20957;DHT22;10637;47.970;7.830;2023-03-20T23:18:20;8.40;99.90
20957;DHT22;10637;47.970;7.830;2023-03-20T23:23:23;8.10;99.90
20957;DHT22;10637;47.970;7.830;2023-03-20T23:28:24;8.30;99.90
20957;DHT22;10637;47.970;7.830;2023-03-20T23:33:26;8.20;99.90
20957;DHT22;10637;47.970;7.830;2023-03-20T23:38:28;8.10;99.90
20957;DHT22;10637;47.970;7.830;2023-03-20T23:43:30;8.00;99.90
20957;DHT22;10637;47.970;7.830;2023-03-20T23:48:33;7.90;99.90
20957;DHT22;10637;47.970;7.830;2023-03-20T23:53:35;7.90;99.90
20957;DHT22;10637;47.970;7.830;2023-03-20T23:58:37;7.80;99.90
